createdAt,value
2018-07-10T00:02:07.359Z,14.50
2018-07-10T00:06:03.253Z,14.40
2018-07-10T00:11:30.522Z,14.30
2018-07-10T00:16:37.274Z,14.20
2018-07-10T00:19:11.171Z,14.20
2018-07-10T00:21:45.165Z,14.20
2018-07-10T00:24:19.248Z,14.20
2018-07-10T00:26:53.246Z,14.20
2018-07-10T00:32:00.291Z,14.30
2018-07-10T00:34:34.426Z,14.30
2018-07-10T00:37:08.526Z,14.30
2018-07-10T00:39:42.551Z,14.30
2018-07-10T00:42:16.555Z,14.40
2018-07-10T00:44:50.573Z,14.30
2018-07-10T00:47:24.431Z,14.30
2018-07-10T00:49:58.512Z,14.30
2018-07-10T00:52:36.053Z,14.30
2018-07-10T00:55:10.063Z,14.30
2018-07-10T00:57:44.067Z,14.40
2018-07-10T01:00:36.693Z,14.40
2018-07-10T01:03:10.648Z,14.40
2018-07-10T01:05:44.526Z,14.30
2018-07-10T01:08:18.373Z,14.30
2018-07-10T01:11:03.445Z,14.30
2018-07-10T01:13:37.467Z,14.30
2018-07-10T01:16:11.377Z,14.30
2018-07-10T01:18:47.436Z,14.30
2018-07-10T01:21:24.309Z,14.30
2018-07-10T01:24:05.009Z,14.30
2018-07-10T01:26:43.073Z,14.40
2018-07-10T01:29:24.809Z,14.40
2018-07-10T01:31:59.072Z,14.30
2018-07-10T01:34:32.985Z,14.30
2018-07-10T01:37:07.210Z,14.30
2018-07-10T01:39:41.166Z,14.20
2018-07-10T01:42:14.995Z,14.30
2018-07-10T01:44:48.922Z,14.30
2018-07-10T01:47:22.899Z,14.30
2018-07-10T01:49:58.689Z,14.20
2018-07-10T01:52:33.893Z,14.10
2018-07-10T01:55:08.811Z,14.20
2018-07-10T01:57:43.701Z,14.10
2018-07-10T02:00:43.095Z,14.00
2018-07-10T02:03:17.058Z,14.00
2018-07-10T02:05:51.034Z,14.00
2018-07-10T02:08:24.808Z,14.00
2018-07-10T02:10:58.797Z,13.90
2018-07-10T02:13:32.708Z,14.00
2018-07-10T02:16:06.699Z,13.90
2018-07-10T02:18:40.613Z,13.90
2018-07-10T02:21:14.673Z,13.90
2018-07-10T02:23:49.317Z,13.90
2018-07-10T02:26:27.847Z,13.80
2018-07-10T02:29:01.876Z,13.90
2018-07-10T02:31:35.794Z,13.90
2018-07-10T02:34:09.730Z,13.90
2018-07-10T02:36:43.778Z,13.80
2018-07-10T02:39:20.235Z,13.80
2018-07-10T02:41:54.686Z,13.80
2018-07-10T02:44:29.130Z,13.80
2018-07-10T02:47:03.281Z,13.80
2018-07-10T02:49:37.300Z,13.90
2018-07-10T02:52:12.447Z,13.90
2018-07-10T02:54:47.762Z,13.90
2018-07-10T02:57:21.896Z,13.90
2018-07-10T02:59:56.100Z,13.90
2018-07-10T03:02:31.019Z,13.90
2018-07-10T03:05:07.909Z,13.90
2018-07-10T03:07:42.004Z,14.00
2018-07-10T03:10:16.040Z,13.90
2018-07-10T03:12:50.119Z,13.90
2018-07-10T03:15:24.118Z,13.90
2018-07-10T03:17:59.509Z,13.90
2018-07-10T03:20:33.572Z,13.90
2018-07-10T03:23:07.996Z,13.80
2018-07-10T03:25:42.041Z,13.90
2018-07-10T03:30:49.080Z,13.90
2018-07-10T03:33:22.936Z,13.90
2018-07-10T03:35:56.771Z,13.90
2018-07-10T03:38:30.699Z,13.90
2018-07-10T03:41:05.390Z,13.90
2018-07-10T03:43:39.397Z,13.80
2018-07-10T03:46:13.560Z,13.90
2018-07-10T03:48:47.590Z,13.90
2018-07-10T03:51:21.777Z,13.90
2018-07-10T03:53:56.134Z,14.00
2018-07-10T03:56:30.213Z,13.90
2018-07-10T03:59:04.338Z,14.00
2018-07-10T04:01:41.399Z,14.00
2018-07-10T04:04:16.585Z,14.10
2018-07-10T04:06:50.549Z,14.10
2018-07-10T04:09:24.469Z,14.10
2018-07-10T04:11:58.496Z,14.10
2018-07-10T04:14:32.487Z,14.10
2018-07-10T04:17:06.713Z,14.20
2018-07-10T04:19:40.656Z,14.30
2018-07-10T04:22:18.334Z,14.30
2018-07-10T04:24:52.377Z,14.40
2018-07-10T04:27:38.079Z,14.40
2018-07-10T04:30:45.870Z,14.50
2018-07-10T04:33:18.374Z,14.50
2018-07-10T04:35:50.930Z,14.50
2018-07-10T04:38:29.393Z,14.50
2018-07-10T04:41:39.274Z,14.60
2018-07-10T04:44:15.183Z,14.60
2018-07-10T04:46:59.088Z,14.60
2018-07-10T04:49:40.929Z,14.70
2018-07-10T04:52:28.657Z,14.80
2018-07-10T04:55:13.749Z,14.80
2018-07-10T04:58:10.328Z,14.80
2018-07-10T05:00:59.026Z,14.80
2018-07-10T05:03:33.244Z,14.80
2018-07-10T05:06:08.966Z,14.80
2018-07-10T05:08:42.464Z,14.80
2018-07-10T05:11:14.971Z,14.90
2018-07-10T05:13:47.525Z,15.00
2018-07-10T05:16:20.117Z,15.00
2018-07-10T05:21:24.579Z,15.20
2018-07-10T05:23:57.080Z,15.30
2018-07-10T05:26:30.200Z,15.30
2018-07-10T05:29:02.796Z,15.40
2018-07-10T05:31:38.609Z,15.50
2018-07-10T05:34:11.196Z,15.60
2018-07-10T05:36:43.781Z,15.70
2018-07-10T05:39:16.329Z,15.80
2018-07-10T05:41:49.682Z,15.80
2018-07-10T05:44:24.288Z,15.90
2018-07-10T05:47:04.220Z,15.90
2018-07-10T05:49:42.074Z,15.90
2018-07-10T05:52:15.656Z,16.00
2018-07-10T05:54:48.664Z,16.10
2018-07-10T05:57:21.248Z,16.20
2018-07-10T05:59:53.723Z,16.20
2018-07-10T06:02:26.246Z,16.20
2018-07-10T06:04:58.838Z,16.20
2018-07-10T06:07:31.470Z,16.20
2018-07-10T06:10:04.022Z,16.10
2018-07-10T06:12:36.479Z,16.10
2018-07-10T06:15:09.089Z,16.00
2018-07-10T06:17:41.681Z,16.00
2018-07-10T06:20:14.236Z,16.00
2018-07-10T06:22:46.861Z,16.00
2018-07-10T06:25:19.671Z,16.10
2018-07-10T06:28:12.803Z,16.20
2018-07-10T06:30:45.314Z,16.20
2018-07-10T06:33:25.513Z,16.30
2018-07-10T06:36:19.092Z,16.30
2018-07-10T06:38:54.880Z,16.40
2018-07-10T06:41:28.924Z,16.40
2018-07-10T06:44:02.500Z,16.40
2018-07-10T06:46:43.155Z,16.40
2018-07-10T06:49:37.339Z,16.50
2018-07-10T06:52:16.596Z,16.50
2018-07-10T06:55:14.817Z,16.50
2018-07-10T06:57:56.419Z,16.60
2018-07-10T07:00:29.369Z,16.60
2018-07-10T07:03:04.690Z,16.60
2018-07-10T07:05:37.187Z,16.60
2018-07-10T07:08:09.616Z,16.70
2018-07-10T07:10:42.128Z,16.70
2018-07-10T07:13:14.610Z,16.80
2018-07-10T07:15:47.131Z,16.80
2018-07-10T07:18:19.600Z,16.80
2018-07-10T07:20:52.065Z,16.90
2018-07-10T07:23:24.531Z,16.90
2018-07-10T07:25:56.988Z,17.00
2018-07-10T07:28:29.424Z,16.90
2018-07-10T07:31:01.915Z,17.00
2018-07-10T07:33:34.537Z,17.00
2018-07-10T07:36:06.960Z,17.00
2018-07-10T07:38:39.416Z,17.10
2018-07-10T07:41:11.627Z,17.10
2018-07-10T07:43:44.259Z,17.10
2018-07-10T07:46:16.643Z,17.20
2018-07-10T07:48:49.075Z,17.20
2018-07-10T07:51:21.559Z,17.20
2018-07-10T07:53:54.050Z,17.20
2018-07-10T07:56:26.576Z,17.30
2018-07-10T07:58:59.008Z,17.40
2018-07-10T08:01:31.469Z,17.40
2018-07-10T08:04:03.921Z,17.50
2018-07-10T08:06:36.481Z,17.50
2018-07-10T08:09:09.753Z,17.60
2018-07-10T08:11:42.259Z,17.70
2018-07-10T08:14:18.457Z,17.90
2018-07-10T08:16:50.971Z,18.00
2018-07-10T08:19:23.477Z,18.10
2018-07-10T08:21:56.125Z,18.10
2018-07-10T08:24:28.646Z,18.10
2018-07-10T08:27:01.624Z,18.10
2018-07-10T08:29:34.137Z,18.20
2018-07-10T08:32:07.069Z,18.20
2018-07-10T08:34:39.578Z,18.10
2018-07-10T08:37:12.105Z,18.10
2018-07-10T08:39:44.576Z,17.90
2018-07-10T08:42:17.088Z,17.80
2018-07-10T08:44:49.578Z,17.60
2018-07-10T08:47:22.085Z,17.60
2018-07-10T08:49:55.675Z,17.60
2018-07-10T08:52:28.264Z,17.60
2018-07-10T08:55:00.699Z,17.60
2018-07-10T08:57:33.317Z,17.50
2018-07-10T09:00:06.064Z,17.50
2018-07-10T09:02:38.646Z,17.50
2018-07-10T09:05:11.177Z,17.40
2018-07-10T09:07:43.712Z,17.50
2018-07-10T09:10:16.224Z,17.70
2018-07-10T09:12:48.732Z,17.90
2018-07-10T09:15:21.256Z,18.20
2018-07-10T09:17:53.760Z,18.30
2018-07-10T09:20:36.810Z,18.30
2018-07-10T09:23:09.432Z,18.30
2018-07-10T09:25:42.050Z,18.40
2018-07-10T09:28:14.809Z,18.60
2018-07-10T09:30:47.321Z,18.90
2018-07-10T09:33:19.858Z,19.00
2018-07-10T09:35:52.385Z,19.00
2018-07-10T09:38:24.901Z,18.90
2018-07-10T09:40:58.563Z,19.00
2018-07-10T09:43:31.157Z,19.00
2018-07-10T09:46:03.739Z,19.20
2018-07-10T09:48:36.448Z,19.30
2018-07-10T09:51:09.328Z,19.50
2018-07-10T09:53:41.812Z,19.70
2018-07-10T09:56:14.349Z,20.00
2018-07-10T09:58:46.880Z,20.30
2018-07-10T10:01:27.184Z,20.30
2018-07-10T10:03:59.749Z,20.30
2018-07-10T10:06:32.245Z,20.40
2018-07-10T10:09:05.912Z,20.60
2018-07-10T10:11:38.397Z,20.60
2018-07-10T10:14:11.176Z,20.60
2018-07-10T10:16:43.681Z,20.70
2018-07-10T10:19:16.273Z,20.80
2018-07-10T10:21:48.831Z,20.60
2018-07-10T10:24:21.404Z,20.50
2018-07-10T10:26:53.970Z,20.30
2018-07-10T10:29:26.494Z,20.20
2018-07-10T10:31:59.015Z,20.20
2018-07-10T10:34:31.749Z,20.20
2018-07-10T10:37:04.265Z,20.30
2018-07-10T10:39:36.870Z,20.30
2018-07-10T10:42:09.622Z,20.20
2018-07-10T10:44:43.488Z,20.30
2018-07-10T10:47:16.641Z,20.30
2018-07-10T10:49:49.203Z,20.30
2018-07-10T10:52:22.469Z,20.30
2018-07-10T10:54:55.109Z,20.50
2018-07-10T10:57:34.012Z,20.70
2018-07-10T11:00:07.072Z,20.80
2018-07-10T11:02:39.815Z,20.80
2018-07-10T11:05:12.321Z,20.80
2018-07-10T11:07:44.862Z,20.90
2018-07-10T11:10:19.066Z,20.90
2018-07-10T11:12:51.736Z,21.00
2018-07-10T11:15:24.468Z,21.30
2018-07-10T11:18:10.332Z,21.30
2018-07-10T11:22:08.292Z,21.20
2018-07-10T11:25:04.752Z,21.10
2018-07-10T11:28:12.057Z,21.10
2018-07-10T11:33:16.559Z,21.00
2018-07-10T11:35:49.068Z,20.90
2018-07-10T11:38:21.817Z,20.90
2018-07-10T11:40:54.309Z,21.00
2018-07-10T11:43:26.824Z,21.20
2018-07-10T11:45:59.302Z,21.50
2018-07-10T11:48:31.779Z,22.00
2018-07-10T11:51:04.227Z,22.30
2018-07-10T11:53:36.961Z,22.60
2018-07-10T11:56:09.503Z,22.90
2018-07-10T11:58:42.019Z,23.00
2018-07-10T12:01:14.468Z,23.00
2018-07-10T12:03:47.292Z,22.80
2018-07-10T12:06:19.736Z,22.60
2018-07-10T12:09:00.975Z,22.60
2018-07-10T12:11:34.273Z,22.50
2018-07-10T12:14:06.790Z,22.60
2018-07-10T12:16:39.280Z,22.70
2018-07-10T12:19:11.694Z,22.70
2018-07-10T12:21:44.192Z,22.80
2018-07-10T12:24:16.974Z,22.90
2018-07-10T12:26:49.484Z,23.10
2018-07-10T12:29:22.000Z,23.30
2018-07-10T12:31:54.628Z,23.60
2018-07-10T12:34:27.129Z,23.60
2018-07-10T12:36:59.595Z,23.60
2018-07-10T12:39:32.065Z,23.60
2018-07-10T12:42:04.580Z,23.80
2018-07-10T12:44:37.086Z,24.00
2018-07-10T12:47:09.569Z,24.10
2018-07-10T12:49:42.105Z,24.20
2018-07-10T12:52:14.674Z,24.50
2018-07-10T12:54:47.139Z,24.50
2018-07-10T12:57:19.832Z,24.70
2018-07-10T12:59:52.616Z,24.80
2018-07-10T13:02:26.160Z,25.00
2018-07-10T13:04:58.836Z,25.30
2018-07-10T13:07:31.348Z,25.60
2018-07-10T13:10:04.101Z,25.60
2018-07-10T13:12:36.586Z,25.60
2018-07-10T13:15:09.232Z,25.70
2018-07-10T13:17:47.288Z,25.70
2018-07-10T13:20:21.084Z,25.80
2018-07-10T13:22:53.676Z,26.10
2018-07-10T13:25:26.167Z,26.10
2018-07-10T13:27:58.667Z,26.00
2018-07-10T13:30:31.221Z,25.70
2018-07-10T13:33:04.068Z,25.50
2018-07-10T13:35:37.779Z,25.30
2018-07-10T13:38:10.308Z,25.20
2018-07-10T13:40:42.893Z,25.10
2018-07-10T13:43:15.465Z,25.10
2018-07-10T13:45:47.991Z,25.50
2018-07-10T13:48:20.829Z,26.00
2018-07-10T13:50:54.264Z,26.40
2018-07-10T13:53:26.783Z,26.80
2018-07-10T13:55:59.307Z,26.90
2018-07-10T13:58:34.161Z,26.90
2018-07-10T14:03:42.564Z,27.00
2018-07-10T14:06:15.016Z,26.90
2018-07-10T14:08:47.502Z,26.70
2018-07-10T14:11:20.014Z,26.30
2018-07-10T14:13:52.693Z,26.00
2018-07-10T14:16:25.192Z,25.80
2018-07-10T14:19:01.279Z,25.50
2018-07-10T14:21:33.908Z,25.30
2018-07-10T14:26:38.389Z,25.00
2018-07-10T14:29:10.828Z,24.80
2018-07-10T14:31:43.305Z,24.70
2018-07-10T14:34:15.758Z,24.60
2018-07-10T14:39:20.184Z,24.50
2018-07-10T14:41:56.213Z,24.40
2018-07-10T14:44:29.997Z,24.20
2018-07-10T14:47:03.074Z,24.00
2018-07-10T14:49:37.039Z,23.70
2018-07-10T14:52:09.523Z,23.50
2018-07-10T14:54:42.690Z,23.30
2018-07-10T14:57:15.483Z,23.20
2018-07-10T14:59:47.939Z,23.00
2018-07-10T15:02:20.513Z,22.70
2018-07-10T15:04:52.988Z,22.60
2018-07-10T15:07:25.484Z,22.50
2018-07-10T15:09:57.958Z,22.40
2018-07-10T15:12:30.389Z,22.30
2018-07-10T15:15:02.995Z,22.20
2018-07-10T15:17:40.388Z,22.10
2018-07-10T15:20:12.852Z,22.10
2018-07-10T15:22:45.380Z,22.00
2018-07-10T15:25:17.822Z,22.00
2018-07-10T15:27:50.331Z,21.90
2018-07-10T15:30:22.832Z,21.90
2018-07-10T15:32:55.333Z,21.80
2018-07-10T15:35:27.780Z,21.80
2018-07-10T15:38:00.375Z,21.80
2018-07-10T15:40:32.949Z,21.90
2018-07-10T15:43:05.440Z,21.90
2018-07-10T15:45:37.974Z,21.90
2018-07-10T15:48:10.392Z,22.00
2018-07-10T15:50:42.873Z,22.00
2018-07-10T15:53:15.363Z,22.10
2018-07-10T15:55:47.881Z,22.20
2018-07-10T15:58:20.417Z,22.20
2018-07-10T16:00:52.929Z,22.30
2018-07-10T16:03:25.472Z,22.30
2018-07-10T16:05:58.149Z,22.40
2018-07-10T16:08:30.818Z,22.40
2018-07-10T16:11:05.889Z,22.40
2018-07-10T16:13:45.120Z,22.30
2018-07-10T16:16:21.075Z,22.40
2018-07-10T16:19:04.396Z,22.40
2018-07-10T16:22:00.150Z,22.40
2018-07-10T16:24:43.288Z,22.40
2018-07-10T16:27:21.747Z,22.40
2018-07-10T16:32:26.916Z,22.40
2018-07-10T16:34:59.396Z,22.40
2018-07-10T16:37:31.891Z,22.40
2018-07-10T16:40:06.925Z,22.50
2018-07-10T16:42:44.457Z,22.50
2018-07-10T16:45:41.385Z,22.50
2018-07-10T16:48:30.228Z,22.50
2018-07-10T16:51:27.761Z,22.60
2018-07-10T16:54:02.098Z,22.50
2018-07-10T16:56:34.551Z,22.50
2018-07-10T16:59:07.452Z,22.50
2018-07-10T17:01:40.365Z,22.50
2018-07-10T17:06:45.164Z,22.50
2018-07-10T17:09:17.869Z,22.60
2018-07-10T17:11:50.289Z,22.60
2018-07-10T17:14:26.130Z,22.60
2018-07-10T17:16:58.598Z,22.70
2018-07-10T17:19:31.060Z,22.70
2018-07-10T17:22:05.122Z,22.70
2018-07-10T17:24:40.883Z,22.70
2018-07-10T17:27:13.384Z,22.60
2018-07-10T17:29:45.895Z,22.50
2018-07-10T17:32:18.335Z,22.50
2018-07-10T17:34:50.804Z,22.40
2018-07-10T17:37:23.292Z,22.40
2018-07-10T17:39:56.059Z,22.40
2018-07-10T17:42:28.556Z,22.40
2018-07-10T17:45:01.129Z,22.40
2018-07-10T17:47:33.648Z,22.40
2018-07-10T17:50:06.300Z,22.40
2018-07-10T17:52:39.017Z,22.30
2018-07-10T17:55:12.846Z,22.30
2018-07-10T17:57:45.848Z,22.20
2018-07-10T18:00:18.338Z,22.20
2018-07-10T18:02:50.787Z,22.20
2018-07-10T18:05:23.262Z,22.20
2018-07-10T18:07:55.735Z,22.10
2018-07-10T18:10:29.092Z,22.10
2018-07-10T18:13:03.015Z,22.00
2018-07-10T18:15:35.716Z,22.00
2018-07-10T18:18:08.294Z,22.00
2018-07-10T18:20:42.170Z,21.90
2018-07-10T18:23:16.092Z,21.90
2018-07-10T18:25:49.917Z,21.90
2018-07-10T18:28:22.483Z,21.90
2018-07-10T18:30:55.028Z,21.90
2018-07-10T18:33:27.427Z,21.90
2018-07-10T18:35:59.863Z,21.90
2018-07-10T18:38:32.364Z,21.90
2018-07-10T18:41:04.898Z,21.90
2018-07-10T18:43:37.370Z,21.90
2018-07-10T18:46:10.611Z,21.90
2018-07-10T18:48:43.998Z,21.90
2018-07-10T18:51:17.517Z,21.80
2018-07-10T18:53:50.655Z,21.70
2018-07-10T18:56:24.824Z,21.70
2018-07-10T18:59:11.191Z,21.50
2018-07-10T19:02:04.960Z,21.50
2018-07-10T19:04:54.213Z,21.50
2018-07-10T19:07:27.276Z,21.40
2018-07-10T19:10:00.599Z,21.30
2018-07-10T19:12:34.299Z,21.30
2018-07-10T19:15:09.028Z,21.20
2018-07-10T19:17:42.537Z,21.20
2018-07-10T19:20:17.124Z,21.10
2018-07-10T19:23:54.855Z,21.10
2018-07-10T19:26:31.299Z,21.00
2018-07-10T19:29:22.826Z,20.90
2018-07-10T19:31:57.033Z,20.80
2018-07-10T19:34:30.169Z,20.70
2018-07-10T19:37:03.227Z,20.70
2018-07-10T19:39:37.483Z,20.70
2018-07-10T19:42:11.270Z,20.60
2018-07-10T19:44:44.513Z,20.60
2018-07-10T19:47:18.391Z,20.50
2018-07-10T19:49:56.448Z,20.50
2018-07-10T19:52:28.952Z,20.40
2018-07-10T19:55:01.456Z,20.40
2018-07-10T19:58:30.844Z,20.30
2018-07-10T20:01:25.938Z,20.30
2018-07-10T20:04:10.772Z,20.20
2018-07-10T20:08:02.871Z,20.10
2018-07-10T20:10:49.889Z,20.10
2018-07-10T20:13:47.053Z,20.00
2018-07-10T20:16:55.443Z,20.00
2018-07-10T20:20:09.561Z,19.90
2018-07-10T20:24:23.605Z,19.90
2018-07-10T20:27:27.161Z,19.80
2018-07-10T20:30:47.712Z,19.60
2018-07-10T20:35:34.644Z,19.60
2018-07-10T20:38:08.027Z,19.50
2018-07-10T20:40:41.663Z,19.40
2018-07-10T20:43:19.950Z,19.30
2018-07-10T20:45:54.712Z,19.30
2018-07-10T20:48:43.570Z,19.30
2018-07-10T20:51:17.216Z,19.30
2018-07-10T20:54:47.761Z,19.20
2018-07-10T20:57:30.318Z,19.10
2018-07-10T21:00:15.362Z,19.10
2018-07-10T21:03:20.794Z,19.00
2018-07-10T21:05:56.484Z,19.00
2018-07-10T21:08:44.011Z,19.00
2018-07-10T21:11:25.264Z,18.90
2018-07-10T21:14:10.041Z,18.90
2018-07-10T21:17:19.569Z,18.80
2018-07-10T21:22:19.032Z,18.80
2018-07-10T21:25:57.920Z,18.80
2018-07-10T21:28:45.987Z,18.70
2018-07-10T21:32:02.970Z,18.60
2018-07-10T21:34:53.125Z,18.60
2018-07-10T21:39:52.433Z,18.60
2018-07-10T21:42:44.323Z,18.50
2018-07-10T21:46:00.766Z,18.40
2018-07-10T21:49:11.127Z,18.40
2018-07-10T21:51:51.457Z,18.40
2018-07-10T21:54:25.432Z,18.30
2018-07-10T21:56:59.466Z,18.30
2018-07-10T21:59:34.918Z,18.30
2018-07-10T22:02:10.677Z,18.20
2018-07-10T22:05:02.037Z,18.20
2018-07-10T22:07:54.234Z,18.20
2018-07-10T22:10:34.049Z,18.10
2018-07-10T22:13:26.250Z,18.10
2018-07-10T22:19:05.088Z,18.00
2018-07-10T22:21:53.342Z,17.90
2018-07-10T22:24:29.452Z,17.90
2018-07-10T22:27:03.473Z,17.90
2018-07-10T22:29:48.246Z,17.80
2018-07-10T22:32:43.713Z,17.80
2018-07-10T22:35:19.150Z,17.70
2018-07-10T22:37:53.357Z,17.70
2018-07-10T22:40:26.469Z,17.60
2018-07-10T22:43:00.388Z,17.60
2018-07-10T22:45:34.381Z,17.60
2018-07-10T22:48:08.434Z,17.50
2018-07-10T22:50:42.491Z,17.50
2018-07-10T22:53:16.650Z,17.50
2018-07-10T22:55:50.758Z,17.40
2018-07-10T22:58:24.859Z,17.30
2018-07-10T23:00:58.714Z,17.30
2018-07-10T23:03:32.443Z,17.30
2018-07-10T23:08:38.823Z,17.20
2018-07-10T23:11:15.739Z,17.10
2018-07-10T23:13:50.699Z,17.10
2018-07-10T23:16:24.198Z,17.00
2018-07-10T23:18:58.348Z,17.00
2018-07-10T23:21:31.938Z,17.00
2018-07-10T23:24:06.605Z,17.00
2018-07-10T23:26:42.643Z,17.00
2018-07-10T23:29:16.339Z,17.00
2018-07-10T23:31:49.966Z,17.00
2018-07-10T23:34:23.664Z,17.00
2018-07-10T23:37:00.217Z,17.00
2018-07-10T23:39:49.340Z,17.00
2018-07-10T23:42:38.263Z,17.00
2018-07-10T23:45:25.670Z,17.00
2018-07-10T23:48:07.799Z,17.10
2018-07-10T23:50:42.143Z,17.10
2018-07-10T23:53:31.088Z,17.10
2018-07-10T23:56:04.526Z,17.10
2018-07-10T23:58:38.583Z,17.10
